Time;durP1;ratioP1;P1;durP2;ratioP2;P2;SDS_P1;SDS_P2;PMS_P1;PMS_P2;Temp;Humidity;BMP_temperature;BMP_pressure;BME280_temperature;BME280_humidity;BME280_pressure;Samples;Min_cycle;Max_cycle;Signal;HPM_P1;HPM_P2
2021/01/27 00:00:12;;;;;;;14.80;7.72;;;;;;;1.23;66.48;98688.45;1744441;82;21273;-70
2021/01/27 00:02:39;;;;;;;13.55;7.85;;;;;;;1.20;66.57;98692.95;1748862;82;21147;-69
2021/01/27 00:05:11;;;;;;;13.72;8.28;;;;;;;1.22;66.51;98693.73;1750093;82;21635;-69
2021/01/27 00:07:40;;;;;;;12.93;7.42;;;;;;;1.21;66.16;98690.27;1746106;82;21139;-69
2021/01/27 00:10:08;;;;;;;13.35;7.95;;;;;;;1.14;66.02;98696.24;1730313;82;21187;-70
2021/01/27 00:12:35;;;;;;;12.30;7.67;;;;;;;1.16;65.93;98713.56;1752287;82;21231;-69
2021/01/27 00:15:07;;;;;;;13.05;7.72;;;;;;;1.10;66.19;98698.61;1738512;82;21191;-69
2021/01/27 00:17:34;;;;;;;14.20;8.55;;;;;;;1.17;66.40;98703.53;1739325;81;21190;-69
2021/01/27 00:20:02;;;;;;;15.08;8.33;;;;;;;1.13;66.65;98704.97;1736353;82;21130;-69
2021/01/27 00:22:29;;;;;;;15.83;8.83;;;;;;;1.14;66.78;98700.15;1753276;82;21285;-69
2021/01/27 00:24:56;;;;;;;15.08;8.90;;;;;;;1.13;66.89;98710.17;1697147;81;21207;-69
2021/01/27 00:27:24;;;;;;;17.35;9.33;;;;;;;1.16;67.04;98710.48;1710474;82;21221;-69
2021/01/27 00:29:51;;;;;;;13.83;7.92;;;;;;;1.19;67.13;98704.28;1726967;82;21153;-69
2021/01/27 00:32:18;;;;;;;14.65;8.20;;;;;;;1.19;67.02;98701.68;1748825;81;21305;-69
2021/01/27 00:34:46;;;;;;;12.73;7.45;;;;;;;1.18;67.06;98695.64;1732181;81;21204;-69
2021/01/27 00:37:14;;;;;;;15.55;7.90;;;;;;;1.16;66.87;98691.42;1714378;82;21199;-69
2021/01/27 00:39:41;;;;;;;11.88;7.70;;;;;;;1.12;66.70;98682.44;1657036;86;21166;-69
2021/01/27 00:42:09;;;;;;;11.48;7.03;;;;;;;1.08;66.66;98683.52;1720503;82;21203;-68
2021/01/27 00:44:36;;;;;;;13.13;7.58;;;;;;;1.06;66.52;98676.25;1706317;82;21163;-69
2021/01/27 00:47:03;;;;;;;12.45;7.87;;;;;;;0.97;66.45;98684.05;1722963;82;21181;-69
2021/01/27 00:49:30;;;;;;;14.15;7.67;;;;;;;0.97;66.51;98678.84;1738288;82;21167;-69
2021/01/27 00:51:58;;;;;;;11.68;7.67;;;;;;;0.91;66.60;98686.94;1740844;82;21691;-69
2021/01/27 00:54:25;;;;;;;13.78;7.53;;;;;;;0.92;66.59;98677.36;1714525;82;21616;-69
2021/01/27 00:56:53;;;;;;;13.80;7.92;;;;;;;0.89;66.58;98677.52;1693150;85;21195;-69
2021/01/27 00:59:20;;;;;;;12.30;7.40;;;;;;;0.87;66.45;98672.83;1690650;84;21184;-69
2021/01/27 01:01:48;;;;;;;13.00;7.45;;;;;;;0.84;66.65;98679.50;1727642;83;21184;-69
2021/01/27 01:04:18;;;;;;;14.78;7.90;;;;;;;0.80;66.70;98678.33;1727211;83;21140;-68
2021/01/27 01:06:46;;;;;;;13.38;7.72;;;;;;;0.79;66.64;98681.87;1727680;83;21152;-68
2021/01/27 01:09:13;;;;;;;15.32;8.58;;;;;;;0.76;66.75;98682.47;1729306;82;21151;-69
2021/01/27 01:11:40;;;;;;;13.78;7.55;;;;;;;0.79;66.81;98680.56;1710991;82;21182;-69
2021/01/27 01:14:07;;;;;;;14.90;7.80;;;;;;;0.71;66.88;98676.16;1714821;84;21154;-69
2021/01/27 01:16:35;;;;;;;14.83;8.68;;;;;;;0.73;67.03;98687.36;1729226;82;21199;-69
2021/01/27 01:19:02;;;;;;;12.05;7.47;;;;;;;0.70;67.20;98669.27;1737631;82;21639;-69
2021/01/27 01:21:29;;;;;;;13.68;8.08;;;;;;;0.69;67.30;98670.64;1743936;81;21180;-69
2021/01/27 01:23:57;;;;;;;13.10;8.25;;;;;;;0.63;67.44;98677.00;1744381;81;21187;-69
2021/01/27 01:26:24;;;;;;;13.78;8.35;;;;;;;0.63;67.53;98663.52;1743765;81;21300;-69
2021/01/27 01:28:51;;;;;;;15.40;8.08;;;;;;;0.63;67.60;98667.89;1742782;81;21199;-69
2021/01/27 01:31:19;;;;;;;15.58;8.70;;;;;;;0.60;67.63;98665.41;1717578;82;21173;-69
2021/01/27 01:33:47;;;;;;;16.35;8.93;;;;;;;0.62;67.53;98661.83;1724908;82;21547;-68
2021/01/27 01:36:14;;;;;;;15.08;8.10;;;;;;;0.58;67.74;98652.95;1717480;82;21193;-68
2021/01/27 01:38:42;;;;;;;17.92;9.05;;;;;;;0.64;67.66;98646.16;1725877;82;21146;-69
2021/01/27 01:41:10;;;;;;;14.65;8.53;;;;;;;0.57;67.79;98651.27;1689201;82;21194;-68
2021/01/27 01:43:39;;;;;;;14.73;8.78;;;;;;;0.59;67.81;98641.61;1692347;82;21144;-68
2021/01/27 01:46:20;;;;;;;14.58;8.48;;;;;;;0.56;67.88;98639.98;1679828;85;21236;-68
2021/01/27 01:48:51;;;;;;;13.62;8.60;;;;;;;0.57;67.95;98642.16;1681203;84;21234;-68
2021/01/27 01:51:38;;;;;;;17.27;9.05;;;;;;;0.49;68.07;98632.94;1727716;82;21184;-68
2021/01/27 01:54:23;;;;;;;16.55;8.83;;;;;;;0.52;68.12;98644.13;1694196;84;21631;-69
2021/01/27 01:56:57;;;;;;;14.40;8.10;;;;;;;0.47;68.10;98636.09;1714446;82;21209;-68
2021/01/27 01:59:24;;;;;;;15.85;7.87;;;;;;;0.47;68.18;98635.23;1743796;82;21623;-68
2021/01/27 02:01:58;;;;;;;14.43;9.15;;;;;;;0.44;68.25;98632.31;1727938;82;21675;-68
2021/01/27 02:04:29;;;;;;;14.68;8.08;;;;;;;0.47;68.30;98628.28;1714876;82;21154;-68
2021/01/27 02:06:56;;;;;;;14.95;8.68;;;;;;;0.45;68.47;98626.20;1733315;82;21599;-68
2021/01/27 02:09:24;;;;;;;17.75;8.40;;;;;;;0.46;68.53;98623.99;1745264;82;21183;-68
2021/01/27 02:12:18;;;;;;;16.00;9.20;;;;;;;0.45;68.58;98626.20;1722532;82;21134;-68
2021/01/27 02:15:22;;;;;;;15.70;8.70;;;;;;;0.47;68.52;98625.69;1691308;83;21119;-68
2021/01/27 02:18:03;;;;;;;14.93;8.70;;;;;;;0.44;68.64;98628.41;1727963;82;21376;-68
2021/01/27 02:21:10;;;;;;;15.98;8.60;;;;;;;0.43;68.63;98629.32;1688897;84;21150;-69
2021/01/27 02:24:35;;;;;;;16.67;9.23;;;;;;;0.40;68.85;98630.78;1728324;82;21131;-68
2021/01/27 02:27:29;;;;;;;14.60;9.10;;;;;;;0.40;68.83;98629.95;1726239;82;21638;-69
2021/01/27 02:30:14;;;;;;;19.32;9.48;;;;;;;0.32;68.93;98629.00;1733295;82;21183;-67
2021/01/27 02:33:25;;;;;;;15.70;8.90;;;;;;;0.34;69.05;98628.45;1744653;82;21096;-68
2021/01/27 02:36:15;;;;;;;18.62;9.65;;;;;;;0.32;69.10;98617.30;1731271;82;21193;-68
2021/01/27 02:38:51;;;;;;;17.65;9.65;;;;;;;0.31;69.24;98627.31;1720553;83;21554;-68
2021/01/27 02:41:33;;;;;;;18.98;9.18;;;;;;;0.33;69.24;98621.56;1728947;82;21272;-68
2021/01/27 02:44:05;;;;;;;16.73;9.05;;;;;;;0.32;69.23;98624.63;1720397;82;21794;-68
2021/01/27 02:46:51;;;;;;;19.67;9.43;;;;;;;0.34;69.20;98623.25;1736916;82;21244;-69
2021/01/27 02:49:44;;;;;;;19.60;9.83;;;;;;;0.32;69.28;98618.60;1704889;83;21179;-68
2021/01/27 02:52:15;;;;;;;15.08;8.10;;;;;;;0.31;69.32;98619.04;1728490;82;21198;-68
2021/01/27 02:55:03;;;;;;;16.97;9.83;;;;;;;0.28;69.46;98623.53;1710223;84;21102;-68
2021/01/27 02:57:35;;;;;;;18.82;10.68;;;;;;;0.27;69.50;98629.64;1722923;82;21132;-68
2021/01/27 03:00:24;;;;;;;16.42;9.18;;;;;;;0.27;69.56;98629.64;1740055;82;21315;-68
2021/01/27 03:03:14;;;;;;;20.20;10.60;;;;;;;0.28;69.60;98623.53;1714182;82;21172;-67
2021/01/27 03:05:45;;;;;;;17.80;9.75;;;;;;;0.31;69.60;98624.71;1739648;82;21203;-68
2021/01/27 03:08:25;;;;;;;20.30;11.12;;;;;;;0.33;69.65;98626.77;1739701;82;21326;-67
2021/01/27 03:11:10;;;;;;;16.75;10.32;;;;;;;0.38;69.58;98624.79;1689510;83;21202;-67
2021/01/27 03:13:38;;;;;;;18.12;10.32;;;;;;;0.37;69.73;98624.43;1710668;82;22160;-68
2021/01/27 03:16:10;;;;;;;16.67;9.65;;;;;;;0.40;69.73;98626.88;1698338;84;21578;-67
2021/01/27 03:18:41;;;;;;;17.80;10.32;;;;;;;0.36;69.88;98621.44;1744720;82;21175;-68
2021/01/27 03:21:14;;;;;;;17.55;9.43;;;;;;;0.42;69.78;98615.09;1683663;84;21594;-68
2021/01/27 03:23:55;;;;;;;22.10;11.17;;;;;;;0.40;69.86;98619.07;1709874;84;21135;-68
2021/01/27 03:26:46;;;;;;;19.45;10.03;;;;;;;0.41;69.87;98603.86;1723419;82;21206;-69
2021/01/27 03:29:46;;;;;;;17.40;10.23;;;;;;;0.35;70.01;98611.95;1715181;83;21697;-68
2021/01/27 03:32:35;;;;;;;18.60;10.68;;;;;;;0.37;70.15;98591.05;1714859;82;21641;-68
2021/01/27 03:35:17;;;;;;;17.82;10.45;;;;;;;0.34;70.26;98597.25;1715022;84;21315;-69
2021/01/27 03:37:50;;;;;;;22.80;10.90;;;;;;;0.38;70.31;98590.15;1731761;82;21183;-68
2021/01/27 03:40:19;;;;;;;18.53;10.60;;;;;;;0.36;70.34;98585.02;1735744;82;21108;-68
2021/01/27 03:42:58;;;;;;;23.32;12.78;;;;;;;0.40;70.28;98593.06;1681055;84;21344;-68
2021/01/27 03:45:27;;;;;;;22.37;12.15;;;;;;;0.40;70.37;98591.77;1706506;84;21619;-69
2021/01/27 03:48:08;;;;;;;20.70;11.90;;;;;;;0.43;70.39;98589.00;1722527;82;21199;-68
2021/01/27 03:50:35;;;;;;;23.87;12.33;;;;;;;0.43;70.45;98600.70;1673949;84;22359;-69
2021/01/27 03:53:07;;;;;;;23.87;12.50;;;;;;;0.42;70.65;98600.34;1710396;82;21155;-69
2021/01/27 03:56:22;;;;;;;19.17;10.58;;;;;;;0.40;70.66;98594.36;1742859;82;21207;-69
2021/01/27 03:58:49;;;;;;;22.77;12.78;;;;;;;0.39;70.73;98604.38;1653817;84;21146;-69
2021/01/27 04:01:20;;;;;;;25.97;13.43;;;;;;;0.43;70.74;98605.08;1742906;82;21355;-68
2021/01/27 04:03:50;;;;;;;23.07;12.25;;;;;;;0.42;70.77;98602.95;1744367;82;21195;-69
2021/01/27 04:06:18;;;;;;;26.12;13.98;;;;;;;0.43;70.68;98609.81;1744057;81;21196;-68
2021/01/27 04:08:45;;;;;;;27.25;15.38;;;;;;;0.41;70.87;98609.06;1744410;82;21155;-69
2021/01/27 04:11:13;;;;;;;31.62;16.17;;;;;;;0.44;70.79;98605.00;1723491;81;21330;-69
2021/01/27 04:13:40;;;;;;;40.60;20.95;;;;;;;0.40;71.11;98607.37;1714939;82;21206;-68
2021/01/27 04:16:08;;;;;;;42.90;20.65;;;;;;;0.42;71.20;98599.48;1720149;82;21147;-68
2021/01/27 04:18:35;;;;;;;41.30;21.35;;;;;;;0.40;71.24;98606.06;1716324;82;21591;-68
2021/01/27 04:21:03;;;;;;;38.02;20.85;;;;;;;0.42;71.20;98610.75;1720701;82;21647;-69
2021/01/27 04:23:30;;;;;;;42.75;22.62;;;;;;;0.45;71.25;98613.66;1744068;82;21336;-68
2021/01/27 04:25:57;;;;;;;43.50;22.55;;;;;;;0.45;71.24;98613.66;1744408;82;21293;-68
2021/01/27 04:28:25;;;;;;;42.27;21.85;;;;;;;0.48;71.15;98615.64;1728837;81;21615;-68
2021/01/27 04:30:52;;;;;;;38.80;21.23;;;;;;;0.45;71.24;98616.27;1715067;83;21626;-68
2021/01/27 04:33:20;;;;;;;34.78;18.27;;;;;;;0.48;71.28;98616.11;1735853;82;21209;-68
2021/01/27 04:35:48;;;;;;;32.13;16.52;;;;;;;0.44;71.38;98626.28;1714739;82;21182;-68
2021/01/27 04:38:15;;;;;;;27.27;14.47;;;;;;;0.46;71.30;98621.39;1719898;82;21142;-68
2021/01/27 04:40:45;;;;;;;23.38;13.35;;;;;;;0.43;71.46;98617.61;1678042;84;21159;-68
2021/01/27 04:43:38;;;;;;;22.60;12.75;;;;;;;0.41;71.62;98616.00;1720965;82;21194;-68
2021/01/27 04:46:23;;;;;;;21.02;11.65;;;;;;;0.41;71.62;98615.56;1716551;82;21154;-68
2021/01/27 04:49:13;;;;;;;20.37;11.97;;;;;;;0.39;71.83;98614.78;1713360;82;21195;-68
2021/01/27 04:51:52;;;;;;;17.90;9.88;;;;;;;0.39;71.75;98616.55;1722884;82;21154;-68
2021/01/27 04:55:01;;;;;;;22.45;12.03;;;;;;;0.37;71.91;98622.27;1742365;82;21290;-69
2021/01/27 04:58:08;;;;;;;20.95;11.57;;;;;;;0.41;71.81;98613.40;1707701;82;21158;-68
2021/01/27 05:00:53;;;;;;;24.52;12.95;;;;;;;0.40;72.01;98616.94;1714823;82;21332;-69
2021/01/27 05:03:56;;;;;;;22.30;11.88;;;;;;;0.39;71.91;98625.19;1716695;82;21146;-68
2021/01/27 05:06:31;;;;;;;23.25;12.00;;;;;;;0.37;72.04;98619.23;1715084;82;21213;-68
2021/01/27 05:09:16;;;;;;;27.50;14.25;;;;;;;0.35;72.04;98624.95;1698014;84;21707;-69
2021/01/27 05:11:44;;;;;;;32.53;16.37;;;;;;;0.35;72.09;98634.05;1660456;84;21499;-68
2021/01/27 05:14:15;;;;;;;41.00;19.92;;;;;;;0.37;72.10;98622.27;1720124;82;21151;-69
2021/01/27 05:16:43;;;;;;;46.15;21.07;;;;;;;0.35;72.20;98620.22;1743152;82;21640;-68
2021/01/27 05:19:10;;;;;;;59.40;24.85;;;;;;;0.38;72.10;98626.09;1657680;84;21205;-69
2021/01/27 05:21:42;;;;;;;53.28;22.90;;;;;;;0.36;72.30;98625.34;1654571;84;21120;-69
2021/01/27 05:26:45;;;;;;;38.63;18.75;;;;;;;0.39;72.25;98634.28;1819006;79;22173;-68
2021/01/27 05:29:34;;;;;;;38.80;19.02;;;;;;;0.35;72.35;98637.95;1782660;80;21779;-69
2021/01/27 05:32:09;;;;;;;33.33;17.35;;;;;;;0.35;72.32;98640.55;1782877;80;21199;-69
2021/01/27 05:34:42;;;;;;;40.25;18.02;;;;;;;0.27;72.50;98652.61;1779170;79;21179;-69
2021/01/27 05:37:31;;;;;;;36.23;17.60;;;;;;;0.30;72.42;98647.25;1794355;79;21306;-69
2021/01/27 05:40:18;;;;;;;38.45;17.82;;;;;;;0.24;72.68;98653.20;1784396;79;21142;-68
2021/01/27 05:42:45;;;;;;;33.15;17.20;;;;;;;0.23;72.82;98652.37;1709549;82;21191;-68
2021/01/27 05:45:42;;;;;;;37.42;16.93;;;;;;;0.19;73.04;98660.37;1717506;83;21713;-68
2021/01/27 05:48:29;;;;;;;31.93;14.15;;;;;;;0.23;72.95;98664.51;1686681;84;21227;-68
2021/01/27 05:51:11;;;;;;;24.05;12.60;;;;;;;0.19;72.99;98659.07;1702397;84;21146;-68
2021/01/27 05:53:39;;;;;;;30.27;15.55;;;;;;;0.20;72.97;98671.16;1689244;84;21203;-68
2021/01/27 05:56:22;;;;;;;28.47;13.85;;;;;;;0.08;73.15;98664.30;1696867;84;21670;-68
2021/01/27 05:58:58;;;;;;;28.85;13.60;;;;;;;0.12;73.25;98664.54;1690651;84;21188;-68
2021/01/27 06:01:43;;;;;;;28.92;14.20;;;;;;;0.06;73.37;98666.11;1687058;84;21160;-68
2021/01/27 06:04:16;;;;;;;25.72;13.05;;;;;;;0.08;73.54;98666.90;1694590;84;21178;-69
2021/01/27 06:06:52;;;;;;;34.75;17.32;;;;;;;0.06;73.55;98667.41;1699235;84;21184;-68
2021/01/27 06:09:41;;;;;;;39.08;18.73;;;;;;;0.12;73.57;98664.54;1695513;83;21179;-69
2021/01/27 06:12:26;;;;;;;32.90;16.77;;;;;;;0.13;73.50;98668.00;1707286;83;21270;-69
2021/01/27 06:15:13;;;;;;;31.62;15.75;;;;;;;0.19;73.58;98675.97;1691072;84;21635;-69
2021/01/27 06:17:49;;;;;;;36.23;17.35;;;;;;;0.20;73.55;98678.96;1690713;85;21228;-69
2021/01/27 06:20:28;;;;;;;42.08;19.40;;;;;;;0.24;73.50;98676.60;1689016;84;21175;-68
2021/01/27 06:23:44;;;;;;;40.52;21.45;;;;;;;0.23;73.53;98679.67;1694378;83;21084;-67
2021/01/27 06:26:53;;;;;;;54.33;23.45;;;;;;;0.28;73.47;98679.01;1681836;84;21615;-67
2021/01/27 06:29:53;;;;;;;55.83;26.35;;;;;;;0.28;73.47;98678.15;1676372;85;21162;-69
2021/01/27 06:32:53;;;;;;;52.10;23.83;;;;;;;0.27;73.55;98678.61;1661528;85;21231;-71
2021/01/27 06:35:32;;;;;;;41.73;20.37;;;;;;;0.26;73.66;98676.92;1675131;85;21152;-71
2021/01/27 06:38:31;;;;;;;36.63;18.12;;;;;;;0.30;73.61;98671.12;1673779;85;21170;-71
2021/01/27 06:41:48;;;;;;;37.13;17.80;;;;;;;0.29;73.62;98675.94;1657097;85;21197;-69
2021/01/27 06:45:06;;;;;;;38.55;18.62;;;;;;;0.32;73.58;98678.42;1666246;85;21534;-67
2021/01/27 06:47:51;;;;;;;40.23;18.67;;;;;;;0.32;73.57;98677.95;1657076;85;21164;-68
2021/01/27 06:50:49;;;;;;;46.13;19.52;;;;;;;0.40;73.52;98682.80;1650468;85;21146;-68
2021/01/27 06:53:42;;;;;;;44.48;21.62;;;;;;;0.42;73.60;98680.98;1663412;86;21641;-68
2021/01/27 06:56:30;;;;;;;55.38;22.22;;;;;;;0.48;73.49;98675.47;1750918;81;21612;-68
2021/01/27 06:59:31;;;;;;;46.88;21.05;;;;;;;0.48;73.53;98660.33;1761146;81;21167;-67
2021/01/27 07:02:28;;;;;;;48.00;21.77;;;;;;;0.56;73.37;98667.31;1713989;81;21649;-68
2021/01/27 07:05:17;;;;;;;37.45;17.73;;;;;;;0.55;73.44;98669.55;1730881;82;21173;-68
2021/01/27 07:08:25;;;;;;;26.62;12.90;;;;;;;0.65;73.40;98668.20;1730373;81;21578;-68
2021/01/27 07:11:31;;;;;;;24.63;12.33;;;;;;;0.63;73.33;98668.72;1693137;85;21214;-68
2021/01/27 07:14:22;;;;;;;26.50;13.30;;;;;;;0.68;73.38;98665.05;1693303;84;21638;-69
2021/01/27 07:17:48;;;;;;;23.27;12.68;;;;;;;0.61;73.26;98672.31;1717472;81;21169;-69
2021/01/27 07:20:33;;;;;;;28.77;14.80;;;;;;;0.66;73.36;98662.53;1712222;81;21175;-69
2021/01/27 07:23:24;;;;;;;31.48;15.90;;;;;;;0.70;73.36;98669.27;1718349;81;21170;-68
2021/01/27 07:26:13;;;;;;;26.35;13.90;;;;;;;0.74;73.08;98676.04;1745888;81;21172;-69
2021/01/27 07:29:06;;;;;;;30.40;16.45;;;;;;;0.76;73.11;98674.66;1752326;81;21314;-69
2021/01/27 07:31:56;;;;;;;28.50;14.73;;;;;;;0.80;73.11;98678.80;1733282;81;21158;-68
2021/01/27 07:34:41;;;;;;;31.30;16.25;;;;;;;0.81;72.83;98673.51;1702623;83;21196;-69
2021/01/27 07:37:31;;;;;;;34.00;16.75;;;;;;;0.74;72.76;98672.57;1751347;80;21303;-68
2021/01/27 07:40:49;;;;;;;31.82;17.37;;;;;;;0.68;72.99;98676.32;1739646;80;21148;-69
2021/01/27 07:43:27;;;;;;;27.70;13.90;;;;;;;0.71;73.25;98673.56;1717926;83;21159;-69
2021/01/27 07:45:56;;;;;;;26.35;14.30;;;;;;;0.77;73.26;98677.18;1740957;81;21195;-69
2021/01/27 07:48:38;;;;;;;29.07;15.50;;;;;;;0.76;73.22;98675.48;1749151;80;21180;-68
2021/01/27 07:51:20;;;;;;;29.57;15.70;;;;;;;0.77;73.04;98670.67;1749173;80;21192;-69
2021/01/27 07:54:05;;;;;;;27.00;14.35;;;;;;;0.79;73.21;98677.10;1764642;80;21170;-69
2021/01/27 07:56:56;;;;;;;24.72;13.62;;;;;;;0.81;72.85;98672.20;1752536;80;21798;-68
2021/01/27 07:59:47;;;;;;;27.98;14.38;;;;;;;0.79;72.64;98662.78;1765004;80;21173;-69
2021/01/27 08:02:18;;;;;;;27.62;14.98;;;;;;;0.76;72.78;98669.45;1744711;80;21186;-69
2021/01/27 08:04:50;;;;;;;27.75;13.80;;;;;;;0.71;72.74;98663.16;1760564;81;21202;-69
2021/01/27 08:07:30;;;;;;;27.82;15.35;;;;;;;0.72;72.94;98663.55;1747767;80;21663;-68
2021/01/27 08:10:24;;;;;;;23.20;13.32;;;;;;;0.72;73.03;98662.72;1736369;81;21139;-68
2021/01/27 08:13:01;;;;;;;27.07;14.13;;;;;;;0.71;74.53;98665.75;1705031;82;21147;-69
2021/01/27 08:15:35;;;;;;;25.72;13.85;;;;;;;0.79;73.33;98668.86;1733690;81;21270;-68
2021/01/27 08:18:12;;;;;;;24.87;13.57;;;;;;;0.79;72.59;98661.48;1736168;82;21601;-68
2021/01/27 08:20:45;;;;;;;29.07;15.08;;;;;;;0.77;72.64;98673.75;1753125;81;21281;-68
2021/01/27 08:23:34;;;;;;;30.50;15.95;;;;;;;0.79;72.39;98677.96;1740363;80;21307;-70
2021/01/27 08:26:04;;;;;;;29.27;15.95;;;;;;;0.83;72.99;98672.59;1744361;81;21320;-69
2021/01/27 08:28:43;;;;;;;29.80;15.38;;;;;;;0.94;72.31;98657.31;1751763;81;21297;-68
2021/01/27 08:31:18;;;;;;;29.63;15.63;;;;;;;0.98;72.25;98666.22;1744864;80;21725;-68
2021/01/27 08:33:54;;;;;;;25.82;14.63;;;;;;;0.99;72.07;98669.65;1754390;80;21647;-68
2021/01/27 08:36:36;;;;;;;24.15;14.03;;;;;;;1.01;72.02;98681.28;1754030;81;21207;-68
2021/01/27 08:39:10;;;;;;;24.25;14.43;;;;;;;0.97;71.88;98668.42;1749091;82;21139;-68
2021/01/27 08:42:05;;;;;;;27.00;14.58;;;;;;;0.94;71.43;98672.46;1752764;81;21180;-68
2021/01/27 08:47:28;;;;;;;26.17;15.43;;;;;;;0.89;71.78;98671.01;1800232;78;22851;-68
2021/01/27 08:49:59;;;;;;;28.38;15.03;;;;;;;0.88;72.02;98673.22;1777506;80;21130;-68
2021/01/27 08:52:31;;;;;;;26.60;14.20;;;;;;;0.91;71.93;98677.83;1767842;80;21593;-68
2021/01/27 08:55:01;;;;;;;30.52;16.37;;;;;;;0.92;71.71;98669.11;1771887;79;21269;-69
2021/01/27 08:57:36;;;;;;;26.17;13.05;;;;;;;0.93;71.59;98666.03;1788157;79;21178;-68
2021/01/27 09:00:37;;;;;;;24.52;13.40;;;;;;;0.94;71.82;98665.13;1751390;81;21584;-69
2021/01/27 09:03:04;;;;;;;27.52;13.72;;;;;;;0.98;71.22;98675.33;1748368;81;21313;-68
2021/01/27 09:05:41;;;;;;;27.93;14.85;;;;;;;0.99;72.64;98667.05;1744515;81;21345;-68
2021/01/27 09:08:23;;;;;;;24.40;13.15;;;;;;;1.07;70.77;98662.29;1732683;81;21166;-68
2021/01/27 09:10:59;;;;;;;21.80;12.98;;;;;;;1.03;70.72;98656.86;1737727;81;21275;-68
2021/01/27 09:13:41;;;;;;;21.70;12.00;;;;;;;1.00;70.52;98653.11;1751498;81;21179;-68
2021/01/27 09:16:17;;;;;;;22.27;11.90;;;;;;;0.99;70.62;98661.84;1734427;81;21182;-68
2021/01/27 09:18:57;;;;;;;24.77;13.58;;;;;;;0.96;70.59;98656.80;1706327;81;21312;-68
2021/01/27 09:21:25;;;;;;;23.02;12.35;;;;;;;0.96;70.70;98660.70;1734063;81;21159;-68
2021/01/27 09:24:04;;;;;;;27.13;14.68;;;;;;;0.92;70.13;98656.53;1732798;81;21578;-68
2021/01/27 09:26:48;;;;;;;23.42;12.82;;;;;;;0.93;69.93;98650.41;1725625;83;21154;-68
2021/01/27 09:29:25;;;;;;;;;;;;;;;0.88;69.97;98667.55;1726633;83;21137;-68
2021/01/27 09:31:53;;;;;;;25.97;14.23;;;;;;;0.92;70.44;98663.03;1717602;83;20225;-68
2021/01/27 09:34:29;;;;;;;22.62;13.30;;;;;;;0.91;70.47;98661.34;1740972;81;21153;-68
2021/01/27 09:37:12;;;;;;;27.85;13.58;;;;;;;0.91;69.92;98657.00;1728437;83;21199;-68
2021/01/27 09:39:40;;;;;;;29.20;15.65;;;;;;;0.88;69.65;98655.83;1729517;81;21587;-68
2021/01/27 09:42:23;;;;;;;30.82;15.25;;;;;;;0.92;69.74;98656.53;1733812;82;21157;-68
2021/01/27 09:45:10;;;;;;;30.35;16.85;;;;;;;0.93;69.71;98659.52;1744532;81;21198;-69
2021/01/27 09:47:42;;;;;;;29.72;15.10;;;;;;;0.95;69.32;98664.21;1745426;81;21600;-68
2021/01/27 09:50:11;;;;;;;30.15;14.28;;;;;;;0.95;69.12;98655.09;1714460;81;21123;-68
2021/01/27 09:52:41;;;;;;;26.25;13.80;;;;;;;1.04;68.54;98646.00;1740571;81;21651;-68
2021/01/27 09:55:12;;;;;;;26.02;13.30;;;;;;;1.02;68.53;98640.84;1757170;81;21245;-68
2021/01/27 09:57:42;;;;;;;26.82;14.68;;;;;;;1.02;68.18;98640.02;1739663;81;21273;-68
2021/01/27 10:00:12;;;;;;;28.77;14.93;;;;;;;1.01;68.24;98633.11;1750008;81;21179;-68
2021/01/27 10:02:39;;;;;;;24.65;13.13;;;;;;;1.03;68.23;98633.42;1735789;81;21274;-68
2021/01/27 10:05:37;;;;;;;20.75;11.90;;;;;;;1.04;67.39;98633.81;1740607;81;21465;-68
2021/01/27 10:08:31;;;;;;;21.77;12.37;;;;;;;1.01;67.56;98633.11;1743235;81;21556;-68
2021/01/27 10:11:26;;;;;;;22.82;12.40;;;;;;;1.00;66.73;98625.78;1734456;81;21710;-67
2021/01/27 10:14:04;;;;;;;24.00;12.00;;;;;;;0.96;67.07;98622.95;1741472;81;21170;-67
2021/01/27 10:16:32;;;;;;;19.45;10.08;;;;;;;1.00;66.77;98616.66;1705385;83;21158;-67
2021/01/27 10:19:07;;;;;;;21.25;11.22;;;;;;;1.00;66.32;98612.76;1688648;84;21224;-68
2021/01/27 10:21:45;;;;;;;18.27;10.38;;;;;;;1.06;65.45;98619.41;1719747;83;21167;-68
2021/01/27 10:24:47;;;;;;;16.97;9.00;;;;;;;1.06;65.79;98621.58;1685327;84;21143;-67
2021/01/27 10:27:38;;;;;;;19.50;10.72;;;;;;;1.09;65.46;98625.31;1681560;84;21186;-68
2021/01/27 10:30:20;;;;;;;19.00;9.85;;;;;;;1.05;65.39;98626.83;1677494;84;21191;-67
2021/01/27 10:32:48;;;;;;;18.48;9.65;;;;;;;1.05;65.39;98637.25;1695689;84;21159;-66
2021/01/27 10:35:31;;;;;;;16.85;9.20;;;;;;;1.13;65.54;98630.75;1692479;84;21183;-67
2021/01/27 10:38:12;;;;;;;21.52;9.75;;;;;;;1.17;65.09;98630.14;1687188;85;21146;-67
2021/01/27 10:40:36;;;;;;;16.30;8.45;;;;;;;1.20;63.96;98619.55;1681564;84;21267;-68
2021/01/27 10:43:18;;;;;;;14.00;7.92;;;;;;;1.17;63.83;98626.70;1691063;84;21151;-68
2021/01/27 10:45:45;;;;;;;15.78;7.90;;;;;;;1.13;63.59;98616.42;1732585;81;21142;-68
2021/01/27 10:48:29;;;;;;;16.35;8.65;;;;;;;1.12;64.04;98610.83;1722713;82;21615;-67
2021/01/27 10:51:06;;;;;;;15.53;8.50;;;;;;;1.19;64.04;98606.62;1719327;82;21169;-67
2021/01/27 10:53:42;;;;;;;16.87;9.48;;;;;;;1.18;64.22;98604.92;1706444;82;21610;-67
2021/01/27 10:56:17;;;;;;;16.93;8.33;;;;;;;1.21;63.84;98600.89;1724785;82;21162;-68
2021/01/27 10:58:44;;;;;;;16.75;7.62;;;;;;;1.19;64.05;98600.11;1694853;82;21633;-68
2021/01/27 11:01:11;;;;;;;12.15;6.53;;;;;;;1.18;63.41;98598.42;1685451;83;21177;-68
2021/01/27 11:03:40;;;;;;;11.12;6.05;;;;;;;1.06;62.82;98600.74;1713189;82;21129;-68
2021/01/27 11:06:08;;;;;;;14.47;7.45;;;;;;;1.04;62.59;98592.16;1709301;82;21195;-68
2021/01/27 11:08:36;;;;;;;11.25;7.08;;;;;;;1.00;63.42;98600.18;1718273;82;21157;-68
2021/01/27 11:11:05;;;;;;;16.07;8.33;;;;;;;1.03;63.58;98594.37;1718174;82;21865;-68
2021/01/27 11:13:35;;;;;;;17.73;9.30;;;;;;;1.03;63.86;98595.67;1718380;82;21217;-68
2021/01/27 11:16:05;;;;;;;15.90;9.00;;;;;;;1.07;63.80;98590.69;1725760;82;21160;-68
2021/01/27 11:18:34;;;;;;;12.43;6.92;;;;;;;1.08;63.96;98593.67;1670475;84;21198;-69
2021/01/27 11:21:03;;;;;;;14.05;7.60;;;;;;;1.07;63.58;98589.38;1702976;82;21201;-69
2021/01/27 11:23:31;;;;;;;15.45;8.68;;;;;;;1.02;63.62;98587.47;1717634;82;21162;-68
2021/01/27 11:25:59;;;;;;;16.50;9.60;;;;;;;1.05;63.67;98579.52;1684438;84;21596;-68
2021/01/27 11:28:26;;;;;;;16.75;9.20;;;;;;;1.08;63.95;98581.13;1680771;84;22058;-69
2021/01/27 11:30:55;;;;;;;15.40;8.10;;;;;;;1.14;63.56;98588.16;1676805;84;21192;-68
2021/01/27 11:33:24;;;;;;;15.88;9.28;;;;;;;1.12;63.54;98590.47;1718345;82;21297;-68
2021/01/27 11:35:53;;;;;;;13.95;8.55;;;;;;;1.16;63.88;98585.95;1714111;82;21210;-68
2021/01/27 11:38:21;;;;;;;14.43;7.60;;;;;;;1.11;64.19;98592.24;1726934;82;21186;-68
2021/01/27 11:40:48;;;;;;;13.55;7.28;;;;;;;1.13;64.32;98586.48;1709399;82;21186;-68
2021/01/27 11:43:15;;;;;;;15.75;9.00;;;;;;;1.13;64.19;98589.08;1686689;84;21154;-67
2021/01/27 11:45:43;;;;;;;16.10;8.75;;;;;;;1.17;64.20;98586.34;1677999;85;21736;-68
2021/01/27 11:48:13;;;;;;;18.70;10.50;;;;;;;1.19;64.03;98579.27;1652738;85;21189;-68
2021/01/27 11:50:41;;;;;;;16.60;9.50;;;;;;;1.25;64.06;98578.97;1730939;82;21175;-67
2021/01/27 11:53:08;;;;;;;18.85;9.13;;;;;;;1.29;63.21;98577.88;1744901;82;21662;-68
2021/01/27 11:55:35;;;;;;;18.30;10.50;;;;;;;1.32;62.75;98582.95;1735550;82;21147;-68
2021/01/27 11:58:03;;;;;;;21.90;11.22;;;;;;;1.32;62.92;98577.74;1722845;82;21173;-67
2021/01/27 12:00:31;;;;;;;18.30;9.50;;;;;;;1.29;63.17;98576.14;1736202;82;21147;-67
2021/01/27 12:02:58;;;;;;;20.05;10.28;;;;;;;1.29;62.81;98580.05;1740922;82;22274;-67
2021/01/27 12:05:25;;;;;;;17.65;9.83;;;;;;;1.26;63.05;98578.05;1731763;82;21198;-67
2021/01/27 12:20:51;;;;;;;13.90;8.45;;;;;;;2.44;60.44;98570.05;1851065;77;22070;-67
2021/01/27 12:23:18;;;;;;;14.58;8.63;;;;;;;2.49;59.75;98568.03;1835892;78;21150;-67
2021/01/27 12:25:46;;;;;;;19.48;9.95;;;;;;;2.28;60.26;98560.95;1743959;81;21676;-67
2021/01/27 12:28:14;;;;;;;14.60;9.43;;;;;;;2.12;60.85;98567.45;1752670;81;21214;-67
2021/01/27 12:30:42;;;;;;;13.20;8.18;;;;;;;2.03;60.64;98562.27;1730584;83;21785;-67
2021/01/27 12:33:10;;;;;;;17.55;9.83;;;;;;;1.95;60.78;98565.30;1763159;79;21702;-67
2021/01/27 12:35:38;;;;;;;15.32;9.33;;;;;;;1.88;61.25;98568.31;1756592;81;21167;-67